createdAt,value
2017-12-22T00:00:19.889Z,31.2
2017-12-22T00:01:20.106Z,31.2
2017-12-22T00:02:22.042Z,31.2
2017-12-22T00:03:20.200Z,31.2
2017-12-22T00:04:20.001Z,31.2
2017-12-22T00:05:22.178Z,31.2
2017-12-22T00:06:22.221Z,31.2
2017-12-22T00:07:22.302Z,31.2
2017-12-22T00:08:22.113Z,31.2
2017-12-22T00:09:20.438Z,31.2
2017-12-22T00:10:20.269Z,31.2
2017-12-22T00:11:20.327Z,31.2
2017-12-22T00:12:20.355Z,31.2
2017-12-22T00:13:20.650Z,31.2
2017-12-22T00:14:20.715Z,31.2
2017-12-22T00:15:20.768Z,31.2
2017-12-22T00:16:20.513Z,31.2
2017-12-22T00:17:20.766Z,31.2
2017-12-22T00:18:20.605Z,31.2
2017-12-22T00:19:22.537Z,31.2
2017-12-22T00:20:22.780Z,31.2
2017-12-22T00:21:26.342Z,31.2
2017-12-22T00:22:20.785Z,31.2
2017-12-22T00:23:23.119Z,31.2
2017-12-22T00:24:20.970Z,31.2
2017-12-22T00:25:21.168Z,31.2
2017-12-22T00:26:21.002Z,31.2
2017-12-22T00:27:21.327Z,31.2
2017-12-22T00:28:21.105Z,31.2
2017-12-22T00:29:23.268Z,31.2
2017-12-22T00:30:21.421Z,31.2
2017-12-22T00:31:21.292Z,31.2
2017-12-22T00:32:21.373Z,31.2
2017-12-22T00:33:21.604Z,31.2
2017-12-22T00:34:21.675Z,31.2
2017-12-22T00:35:21.571Z,31.2
2017-12-22T00:36:21.834Z,31.2
2017-12-22T00:37:23.749Z,31.2
2017-12-22T00:38:21.637Z,31.2
2017-12-22T00:39:23.826Z,31.2
2017-12-22T00:40:21.988Z,31.2
2017-12-22T00:41:21.834Z,31.2
2017-12-22T00:42:21.877Z,31.2
2017-12-22T00:43:24.049Z,31.2
2017-12-22T00:44:21.924Z,31.2
2017-12-22T00:45:21.937Z,31.2
2017-12-22T00:46:22.155Z,31.2
2017-12-22T00:47:21.977Z,31.2
2017-12-22T00:48:22.021Z,31.2
2017-12-22T00:49:22.254Z,31.2
2017-12-22T00:50:23.997Z,31.2
2017-12-22T00:51:22.114Z,31.2
2017-12-22T00:52:22.152Z,31.2
2017-12-22T00:53:22.383Z,31.2
2017-12-22T00:54:22.213Z,31.2
2017-12-22T00:55:22.479Z,31.2
2017-12-22T00:56:24.495Z,31.2
2017-12-22T00:57:22.580Z,31.2
2017-12-22T00:58:22.495Z,31.2
2017-12-22T00:59:24.437Z,31.2
2017-12-22T01:00:22.839Z,31.2
2017-12-22T01:01:22.674Z,31.2
2017-12-22T01:02:24.840Z,31.2
2017-12-22T01:03:22.779Z,31.2
2017-12-22T01:04:22.997Z,31.2
2017-12-22T01:05:24.929Z,31.2
2017-12-22T01:06:24.842Z,31.2
2017-12-22T01:07:24.832Z,31.2
2017-12-22T01:08:22.922Z,31.2
2017-12-22T01:09:23.241Z,31.2
2017-12-22T01:10:23.068Z,31.2
2017-12-22T01:11:25.250Z,31.2
2017-12-22T01:12:23.372Z,31.2
2017-12-22T01:13:25.148Z,31.2
2017-12-22T01:14:25.413Z,31.2
2017-12-22T01:15:25.405Z,31.2
2017-12-22T01:16:23.339Z,31.2
2017-12-22T01:17:25.305Z,31.2
2017-12-22T01:18:23.414Z,31.2
2017-12-22T01:19:25.637Z,31.2
2017-12-22T01:20:25.650Z,31.2
2017-12-22T01:21:23.743Z,31.2
2017-12-22T01:22:23.839Z,31.2
2017-12-22T01:23:23.663Z,31.2
2017-12-22T01:24:25.784Z,31.2
2017-12-22T01:25:23.828Z,31.2
2017-12-22T01:26:23.918Z,31.2
2017-12-22T01:27:25.973Z,31.2
2017-12-22T01:28:25.941Z,31.2
2017-12-22T01:29:23.909Z,31.2
2017-12-22T01:30:24.162Z,31.1
2017-12-22T01:31:26.187Z,31.2
2017-12-22T01:32:24.045Z,31.2
2017-12-22T01:33:26.213Z,31.1
2017-12-22T01:34:24.082Z,31.2
2017-12-22T01:35:24.129Z,31.2
2017-12-22T01:36:24.243Z,31.2
2017-12-22T01:37:24.608Z,31.1
2017-12-22T01:38:26.482Z,31.2
2017-12-22T01:39:26.279Z,31.1
2017-12-22T01:40:26.716Z,31.2
2017-12-22T01:41:24.636Z,31.1
2017-12-22T01:42:24.726Z,31.1
2017-12-22T01:43:24.782Z,31.2
2017-12-22T01:44:26.835Z,31.2
2017-12-22T01:45:24.774Z,31.2
2017-12-22T01:46:27.011Z,31.2
2017-12-22T01:47:25.103Z,31.2
2017-12-22T01:48:25.074Z,31.1
2017-12-22T01:49:25.072Z,31.1
2017-12-22T01:50:27.095Z,31.1
2017-12-22T01:51:24.936Z,31.2
2017-12-22T01:52:27.177Z,31.2
2017-12-22T01:53:27.291Z,31.2
2017-12-22T01:54:27.375Z,31.1
2017-12-22T01:55:25.493Z,31.1
2017-12-22T01:56:25.507Z,31.1
2017-12-22T01:57:27.498Z,31.1
2017-12-22T01:58:25.666Z,31.2
2017-12-22T01:59:25.685Z,31.1
2017-12-22T02:00:27.896Z,31.1
2017-12-22T02:01:27.585Z,31.1
2017-12-22T02:02:25.901Z,31.1
2017-12-22T02:03:25.667Z,31.1
2017-12-22T02:04:27.868Z,31.2
2017-12-22T02:05:25.823Z,31.1
2017-12-22T02:06:25.886Z,31.1
2017-12-22T02:07:26.165Z,31.1
2017-12-22T02:08:26.064Z,31.1
2017-12-22T02:09:26.144Z,31.1
2017-12-22T02:10:26.140Z,31.1
2017-12-22T02:11:28.133Z,31.1
2017-12-22T02:12:28.215Z,31.1
2017-12-22T02:13:26.597Z,31.1
2017-12-22T02:14:28.536Z,31.1
2017-12-22T02:15:26.479Z,31.1
2017-12-22T02:16:28.677Z,31.1
2017-12-22T02:17:26.643Z,31.1
2017-12-22T02:18:26.777Z,31.1
2017-12-22T02:19:26.766Z,31.1
2017-12-22T02:20:27.024Z,31.1
2017-12-22T02:21:27.120Z,31.1
2017-12-22T02:22:27.158Z,31.1
2017-12-22T02:23:29.129Z,31.1
2017-12-22T02:24:29.138Z,31.1
2017-12-22T02:25:27.047Z,31.1
2017-12-22T02:26:29.023Z,31.1
2017-12-22T02:27:27.338Z,31.1
2017-12-22T02:28:27.226Z,31.1
2017-12-22T02:29:27.509Z,31.1
2017-12-22T02:30:27.403Z,31.1
2017-12-22T02:31:27.655Z,31.1
2017-12-22T02:32:27.728Z,31.1
2017-12-22T02:33:29.678Z,31.1
2017-12-22T02:34:27.629Z,31.1
2017-12-22T02:35:29.554Z,31.1
2017-12-22T02:36:27.850Z,31.1
2017-12-22T02:37:27.711Z,31.1
2017-12-22T02:38:27.803Z,31.1
2017-12-22T02:39:29.986Z,31.1
2017-12-22T02:40:28.115Z,31.1
2017-12-22T02:41:30.124Z,31.1
2017-12-22T02:45:10.086Z,31.1
2017-12-22T02:46:08.368Z,31.1
2017-12-22T02:47:08.513Z,31.1
2017-12-22T02:48:08.434Z,31.1
2017-12-22T02:49:10.455Z,31.1
2017-12-22T02:50:08.378Z,31.1
2017-12-22T02:51:10.580Z,31.1
2017-12-22T02:52:10.687Z,31.1
2017-12-22T02:53:10.650Z,31.1
2017-12-22T02:54:08.792Z,31.1
2017-12-22T02:55:08.797Z,31.1
2017-12-22T02:56:10.875Z,31.1
2017-12-22T02:57:08.728Z,31.1
2017-12-22T02:58:09.063Z,31.1
2017-12-22T02:59:08.877Z,31.1
2017-12-22T03:00:08.870Z,31.1
2017-12-22T03:01:09.128Z,31.1
2017-12-22T03:02:09.162Z,31.1
2017-12-22T03:03:09.166Z,31.1
2017-12-22T03:04:09.107Z,31.1
2017-12-22T03:05:09.272Z,31.1
2017-12-22T03:06:11.059Z,31.1
2017-12-22T03:07:09.217Z,31.1
2017-12-22T03:08:09.452Z,31.1
2017-12-22T03:09:11.450Z,31.1
2017-12-22T03:10:11.512Z,31.1
2017-12-22T03:11:09.613Z,31.1
2017-12-22T03:12:09.430Z,31.1
2017-12-22T03:13:09.698Z,31.1
2017-12-22T03:14:11.640Z,31.1
2017-12-22T03:15:09.530Z,31.1
2017-12-22T03:16:11.675Z,31.1
2017-12-22T03:17:11.565Z,31.1
2017-12-22T03:18:09.836Z,31.1
2017-12-22T03:19:09.715Z,31.1
2017-12-22T03:20:09.770Z,31.1
2017-12-22T03:21:10.039Z,31.1
2017-12-22T03:22:12.051Z,31.1
2017-12-22T03:23:10.175Z,31.1
2017-12-22T03:24:10.078Z,31.1
2017-12-22T03:25:12.095Z,31.1
2017-12-22T03:26:10.168Z,31.1
2017-12-22T03:27:12.186Z,31
2017-12-22T03:28:12.401Z,31
2017-12-22T03:29:10.353Z,31
2017-12-22T03:30:10.399Z,31
2017-12-22T03:31:13.115Z,31
2017-12-22T03:32:10.494Z,31
2017-12-22T03:33:10.476Z,31.1
2017-12-22T03:34:12.688Z,31
2017-12-22T03:35:10.550Z,31
2017-12-22T03:36:10.542Z,31
2017-12-22T03:37:10.612Z,31
2017-12-22T03:38:10.707Z,31
2017-12-22T03:39:10.870Z,31
2017-12-22T03:40:12.856Z,31
2017-12-22T03:41:10.855Z,31
2017-12-22T03:42:11.048Z,31
2017-12-22T03:43:10.859Z,31
2017-12-22T03:44:11.167Z,31
2017-12-22T03:45:12.908Z,31
2017-12-22T03:46:11.034Z,31
2017-12-22T03:47:11.291Z,31
2017-12-22T03:48:11.160Z,31
2017-12-22T03:49:13.361Z,31
2017-12-22T03:50:11.447Z,31
2017-12-22T03:51:13.445Z,31
2017-12-22T03:52:13.455Z,31
2017-12-22T03:53:11.535Z,31
2017-12-22T03:54:13.498Z,31.1
2017-12-22T03:55:11.667Z,31
2017-12-22T03:56:13.657Z,31
2017-12-22T03:57:13.758Z,31
2017-12-22T03:58:13.571Z,31
2017-12-22T03:59:13.890Z,31
2017-12-22T04:00:11.758Z,31
2017-12-22T04:01:13.259Z,31
2017-12-22T04:02:12.079Z,31
2017-12-22T04:03:11.959Z,31
2017-12-22T04:04:14.173Z,31
2017-12-22T04:05:14.153Z,31
2017-12-22T04:06:12.044Z,31
2017-12-22T04:07:14.271Z,31
2017-12-22T04:08:12.102Z,31
2017-12-22T04:09:12.200Z,31
2017-12-22T04:10:12.213Z,31
2017-12-22T04:11:12.411Z,31
2017-12-22T04:12:14.131Z,31
2017-12-22T04:13:12.470Z,31
2017-12-22T04:14:12.324Z,31
2017-12-22T04:15:12.368Z,31
2017-12-22T04:16:12.386Z,31
2017-12-22T04:17:14.423Z,31
2017-12-22T04:18:12.796Z,31
2017-12-22T04:19:14.779Z,31
2017-12-22T04:20:14.835Z,31
2017-12-22T04:21:12.949Z,31
2017-12-22T04:22:12.900Z,31
2017-12-22T04:23:14.852Z,31
2017-12-22T04:24:14.926Z,31
2017-12-22T04:25:15.113Z,31
2017-12-22T04:26:14.987Z,31
2017-12-22T04:27:15.017Z,31.1
2017-12-22T04:28:15.368Z,31.1
2017-12-22T04:29:15.358Z,31.1
2017-12-22T04:30:13.301Z,31.2
2017-12-22T04:31:13.528Z,31.2
2017-12-22T04:32:13.556Z,31.2
2017-12-22T04:33:15.586Z,31.2
2017-12-22T04:34:15.665Z,31.2
2017-12-22T04:35:13.771Z,31.2
2017-12-22T04:36:15.742Z,31.2
2017-12-22T04:37:15.561Z,31.2
2017-12-22T04:38:15.781Z,31.2
2017-12-22T04:39:13.726Z,31.2
2017-12-22T04:40:13.728Z,31.2
2017-12-22T04:41:15.942Z,31.1
2017-12-22T04:42:15.995Z,31.1
2017-12-22T04:43:16.056Z,31.2
2017-12-22T04:44:14.227Z,31.1
2017-12-22T04:45:16.231Z,31.1
2017-12-22T04:46:16.033Z,31.1
2017-12-22T04:47:14.427Z,31.1
2017-12-22T04:48:14.214Z,31.1
2017-12-22T04:49:14.468Z,31.1
2017-12-22T04:50:14.316Z,31.1
2017-12-22T04:51:14.557Z,31.1
2017-12-22T04:52:16.591Z,31.1
2017-12-22T04:53:14.532Z,31.1
2017-12-22T04:54:14.570Z,31.1
2017-12-22T04:55:14.576Z,31.1
2017-12-22T04:56:16.611Z,31.1
2017-12-22T04:57:14.768Z,31.1
2017-12-22T04:58:14.821Z,31.1
2017-12-22T04:59:14.818Z,31.1
2017-12-22T05:00:15.126Z,31.1
2017-12-22T05:01:15.008Z,31.1
2017-12-22T05:02:15.041Z,31.1
2017-12-22T05:03:17.272Z,31.1
2017-12-22T05:04:15.140Z,31.1
2017-12-22T05:05:17.278Z,31.1
2017-12-22T05:06:15.346Z,31.1
2017-12-22T05:07:15.400Z,31.1
2017-12-22T05:08:15.404Z,31.1
2017-12-22T05:09:15.225Z,31.1
2017-12-22T05:10:15.503Z,31.1
2017-12-22T05:11:15.560Z,31.1
2017-12-22T05:12:15.618Z,31.1
2017-12-22T05:13:15.466Z,31.1
2017-12-22T05:14:15.732Z,31.1
2017-12-22T05:15:15.618Z,31.1
2017-12-22T05:16:15.883Z,31.1
2017-12-22T05:17:15.779Z,31.1
2017-12-22T05:18:15.991Z,31.1
2017-12-22T05:19:15.784Z,31.1
2017-12-22T05:20:18.017Z,31.1
2017-12-22T05:21:15.927Z,31.1
2017-12-22T05:22:15.942Z,31.1
2017-12-22T05:23:18.149Z,31.1
2017-12-22T05:24:18.202Z,31.1
2017-12-22T05:25:16.204Z,31.1
2017-12-22T05:26:18.343Z,31.1
2017-12-22T05:27:18.429Z,31.1
2017-12-22T05:28:16.522Z,31.2
2017-12-22T05:29:16.290Z,31.5
2017-12-22T05:30:18.469Z,31.7
2017-12-22T05:31:18.545Z,32
2017-12-22T05:32:16.438Z,32.1
2017-12-22T05:33:16.530Z,32.3
2017-12-22T05:34:16.573Z,32.7
2017-12-22T05:35:16.714Z,32.9
2017-12-22T05:36:18.711Z,33
2017-12-22T05:37:16.773Z,33.1
2017-12-22T05:38:18.590Z,33.3
2017-12-22T05:39:18.667Z,33.5
2017-12-22T05:40:18.896Z,33.5
2017-12-22T05:41:16.742Z,33.6
2017-12-22T05:42:17.042Z,33.6
2017-12-22T05:43:16.864Z,33.8
2017-12-22T05:44:19.053Z,33.8
2017-12-22T05:45:19.089Z,33.9
2017-12-22T05:46:19.177Z,33.9
2017-12-22T05:47:19.149Z,33.8
2017-12-22T05:48:19.273Z,33.7
2017-12-22T05:49:19.202Z,33.7
2017-12-22T05:50:19.075Z,33.8
2017-12-22T05:51:19.164Z,33.8
2017-12-22T05:52:19.476Z,33.9
2017-12-22T05:53:17.574Z,33.9
2017-12-22T05:54:17.627Z,33.9
2017-12-22T05:55:19.578Z,33.9
2017-12-22T05:56:17.681Z,33.9
2017-12-22T05:57:17.519Z,34
2017-12-22T05:58:19.715Z,33.9
2017-12-22T05:59:17.772Z,33.9
2017-12-22T06:00:17.643Z,33.9
2017-12-22T06:01:19.828Z,33.9
2017-12-22T06:02:17.946Z,33.9
2017-12-22T06:03:17.961Z,33.9
2017-12-22T06:04:19.976Z,33.9
2017-12-22T06:05:17.824Z,33.8
2017-12-22T06:06:17.898Z,33.8
2017-12-22T06:07:18.176Z,33.8
2017-12-22T06:08:20.143Z,33.8
2017-12-22T06:09:19.917Z,33.7
2017-12-22T06:10:18.049Z,33.7
2017-12-22T06:11:18.101Z,33.7
2017-12-22T06:12:18.194Z,33.7
2017-12-22T06:13:18.397Z,33.7
2017-12-22T06:14:20.441Z,33.7
2017-12-22T06:15:20.216Z,33.7
2017-12-22T06:16:20.228Z,33.7
2017-12-22T06:17:20.347Z,33.6
2017-12-22T06:18:18.716Z,33.6
2017-12-22T06:19:20.564Z,33.6
2017-12-22T06:20:18.574Z,33.6
2017-12-22T06:21:18.643Z,33.5
2017-12-22T06:22:18.701Z,33.5
2017-12-22T06:23:18.893Z,33.5
2017-12-22T06:24:18.801Z,33.5
2017-12-22T06:25:18.905Z,33.5
2017-12-22T06:26:21.029Z,33.4
2017-12-22T06:27:19.132Z,33.4
2017-12-22T06:28:20.931Z,33.4
2017-12-22T06:29:21.252Z,33.4
2017-12-22T06:30:21.038Z,33.4
2017-12-22T06:31:19.160Z,33.3
2017-12-22T06:32:19.204Z,33.3
2017-12-22T06:33:19.253Z,33.3
2017-12-22T06:34:19.309Z,33.3
2017-12-22T06:35:19.362Z,33.3
2017-12-22T06:36:21.487Z,33.3
2017-12-22T06:37:19.447Z,33.2
2017-12-22T06:38:19.446Z,33.2
2017-12-22T06:39:21.862Z,33.2
2017-12-22T06:40:21.684Z,33.2
2017-12-22T06:41:19.860Z,33.2
2017-12-22T06:42:19.736Z,33.2
2017-12-22T06:43:20.116Z,33.1
2017-12-22T06:44:22.013Z,33.2
2017-12-22T06:45:22.058Z,33.1
2017-12-22T06:46:21.963Z,33.1
2017-12-22T06:47:22.193Z,33.1
2017-12-22T06:48:20.344Z,33
2017-12-22T06:49:20.358Z,33
2017-12-22T06:50:22.326Z,32.9
2017-12-22T06:51:20.200Z,32.9
2017-12-22T06:52:20.251Z,32.9
2017-12-22T06:53:22.385Z,32.8
2017-12-22T06:54:20.279Z,32.8
2017-12-22T06:55:22.479Z,32.7
2017-12-22T06:56:22.475Z,32.7
2017-12-22T06:57:22.387Z,32.7
2017-12-22T06:58:22.416Z,32.7
2017-12-22T06:59:22.418Z,32.6
2017-12-22T07:00:20.475Z,32.6
2017-12-22T07:01:20.723Z,32.6
2017-12-22T07:02:22.679Z,32.6
2017-12-22T07:03:22.722Z,32.5
2017-12-22T07:04:20.814Z,32.5
2017-12-22T07:05:22.818Z,32.5
2017-12-22T07:06:20.849Z,32.5
2017-12-22T07:07:20.721Z,32.5
2017-12-22T07:08:22.958Z,32.3
2017-12-22T07:09:20.891Z,32.3
2017-12-22T07:10:20.943Z,32.4
2017-12-22T07:11:21.017Z,32.4
2017-12-22T07:12:23.153Z,32.4
2017-12-22T07:13:23.211Z,32.3
2017-12-22T07:14:21.122Z,32.4
2017-12-22T07:15:23.282Z,32.6
2017-12-22T07:16:21.198Z,32.8
2017-12-22T07:17:21.308Z,33
2017-12-22T07:18:23.404Z,33.2
2017-12-22T07:19:21.459Z,33.4
2017-12-22T07:20:21.820Z,33.7
2017-12-22T07:21:21.563Z,33.9
2017-12-22T07:22:21.473Z,34.3
2017-12-22T07:23:21.780Z,34.4
2017-12-22T07:24:23.627Z,34.7
2017-12-22T07:25:23.680Z,34.8
2017-12-22T07:26:23.491Z,35
2017-12-22T07:27:21.628Z,35.1
2017-12-22T07:28:21.917Z,35.2
2017-12-22T07:29:23.859Z,35.3
2017-12-22T07:30:21.739Z,35.5
2017-12-22T07:31:21.756Z,35.5
2017-12-22T07:32:21.952Z,35.6
2017-12-22T07:33:22.056Z,35.6
2017-12-22T07:34:21.949Z,35.7
2017-12-22T07:35:23.851Z,35.8
2017-12-22T07:36:22.183Z,35.9
2017-12-22T07:37:24.202Z,35.9
2017-12-22T07:38:24.180Z,36.1
2017-12-22T07:39:22.180Z,36.1
2017-12-22T07:40:22.258Z,36.2
2017-12-22T07:41:22.267Z,36.2
2017-12-22T07:42:22.591Z,36.3
2017-12-22T07:43:22.598Z,36.4
2017-12-22T07:44:22.477Z,36.5
2017-12-22T07:45:24.396Z,36.6
2017-12-22T07:46:22.674Z,36.7
2017-12-22T07:47:24.473Z,36.8
2017-12-22T07:48:24.760Z,36.9
2017-12-22T07:49:24.813Z,37
2017-12-22T07:50:22.744Z,37.1
2017-12-22T07:51:22.836Z,37.1
2017-12-22T07:52:25.041Z,37.2
2017-12-22T07:53:25.123Z,37.2
2017-12-22T07:54:24.921Z,37.3
2017-12-22T07:55:25.018Z,37.3
2017-12-22T07:56:23.161Z,37.4
2017-12-22T07:57:25.137Z,37.5
2017-12-22T07:58:23.205Z,37.4
2017-12-22T07:59:23.307Z,37.4
2017-12-22T08:02:38.294Z,37.7
2017-12-22T08:03:38.226Z,37.6
2017-12-22T08:04:38.328Z,37.5
2017-12-22T08:05:40.333Z,37.4
2017-12-22T08:06:40.660Z,37.2
2017-12-22T08:07:38.777Z,37.2
2017-12-22T08:08:38.591Z,37.1
2017-12-22T08:09:38.776Z,37
2017-12-22T08:10:38.688Z,37.1
2017-12-22T08:11:38.783Z,37
2017-12-22T08:12:40.925Z,36.9
2017-12-22T08:13:41.029Z,36.8
2017-12-22T08:14:39.027Z,36.7
2017-12-22T08:15:39.071Z,36.5
2017-12-22T08:16:41.116Z,36.4
2017-12-22T08:17:38.989Z,36.3
2017-12-22T08:18:39.227Z,36.1
2017-12-22T08:19:39.407Z,36
2017-12-22T08:20:41.331Z,35.8
2017-12-22T08:21:39.254Z,35.7
2017-12-22T08:22:41.548Z,35.6
2017-12-22T08:23:41.522Z,35.5
2017-12-22T08:24:39.438Z,35.5
2017-12-22T08:25:41.572Z,35.3
2017-12-22T08:26:39.823Z,35.3
2017-12-22T08:27:39.759Z,35.2
2017-12-22T08:28:39.804Z,35.1
2017-12-22T08:29:39.834Z,35
2017-12-22T08:30:39.678Z,35
2017-12-22T08:31:39.715Z,34.9
2017-12-22T08:32:39.756Z,34.8
2017-12-22T08:33:40.005Z,34.8
2017-12-22T08:34:41.747Z,34.7
2017-12-22T08:35:40.160Z,34.6
2017-12-22T08:36:41.889Z,34.6
2017-12-22T08:37:40.087Z,34.5
2017-12-22T08:38:40.154Z,34.5
2017-12-22T08:39:40.270Z,34.5
2017-12-22T08:40:42.178Z,34.4
2017-12-22T08:41:42.497Z,34.4
2017-12-22T08:42:42.588Z,34.4
2017-12-22T08:43:40.570Z,34.3
2017-12-22T08:44:40.544Z,34.3
2017-12-22T08:45:40.579Z,34.3
2017-12-22T08:46:40.681Z,34.2
2017-12-22T08:47:40.801Z,34.2
2017-12-22T08:48:43.739Z,34.2
2017-12-22T08:49:45.171Z,34.2
2017-12-22T08:50:44.263Z,34.2
2017-12-22T08:51:40.960Z,34.2
2017-12-22T08:52:41.179Z,34.2
2017-12-22T08:53:43.228Z,34.1
2017-12-22T08:54:41.120Z,34.1
2017-12-22T08:55:43.118Z,34.1
2017-12-22T08:56:41.284Z,34.1
2017-12-22T08:57:41.296Z,34.1
2017-12-22T08:58:43.466Z,34.1
2017-12-22T08:59:41.575Z,34
2017-12-22T09:00:41.425Z,34
2017-12-22T09:01:41.814Z,34
2017-12-22T09:02:43.713Z,34
2017-12-22T09:03:41.777Z,34
2017-12-22T09:04:43.636Z,34
2017-12-22T09:05:41.912Z,34
2017-12-22T09:06:41.747Z,34
2017-12-22T09:07:41.852Z,34
2017-12-22T09:08:42.089Z,34
2017-12-22T09:09:41.913Z,34
2017-12-22T09:10:43.922Z,34
2017-12-22T09:11:42.011Z,34
2017-12-22T09:12:42.047Z,33.9
2017-12-22T09:13:42.081Z,33.9
2017-12-22T09:14:42.075Z,33.9
2017-12-22T09:15:42.183Z,33.9
2017-12-22T09:16:44.324Z,33.9
2017-12-22T09:17:42.158Z,33.9
2017-12-22T09:18:42.294Z,33.9
2017-12-22T09:19:42.554Z,33.9
2017-12-22T09:20:44.523Z,33.8
2017-12-22T09:21:44.337Z,33.8
2017-12-22T09:22:42.691Z,33.8
2017-12-22T09:23:42.493Z,33.8
2017-12-22T09:24:42.774Z,33.9
2017-12-22T09:25:42.895Z,33.9
2017-12-22T09:26:44.854Z,33.9
2017-12-22T09:27:44.958Z,33.9
2017-12-22T09:28:42.869Z,33.8
2017-12-22T09:29:43.263Z,33.8
2017-12-22T09:30:42.908Z,33.8
2017-12-22T09:31:42.851Z,33.8
2017-12-22T09:32:42.984Z,33.9
2017-12-22T09:33:44.892Z,33.8
2017-12-22T09:34:43.097Z,33.9
2017-12-22T09:35:45.040Z,33.8
2017-12-22T09:36:43.405Z,33.9
2017-12-22T09:37:45.375Z,33.9
2017-12-22T09:38:43.307Z,33.8
2017-12-22T09:39:45.524Z,33.8
2017-12-22T09:40:43.619Z,33.8
2017-12-22T09:41:45.706Z,33.8
2017-12-22T09:42:43.509Z,33.8
2017-12-22T09:43:43.490Z,33.8
2017-12-22T09:44:43.662Z,33.8
2017-12-22T09:45:45.748Z,33.8
2017-12-22T09:46:45.772Z,33.8
2017-12-22T09:47:43.896Z,33.7
2017-12-22T09:48:43.848Z,33.7
2017-12-22T09:49:43.978Z,33.7
2017-12-22T09:50:44.615Z,33.8
2017-12-22T09:51:43.999Z,33.8
2017-12-22T09:52:45.977Z,33.8
2017-12-22T09:53:46.082Z,33.8
2017-12-22T09:54:46.172Z,33.8
2017-12-22T09:55:46.176Z,33.8
2017-12-22T09:56:44.423Z,33.8
2017-12-22T09:57:46.208Z,33.8
2017-12-22T09:58:44.367Z,33.8
2017-12-22T09:59:44.562Z,33.8
2017-12-22T10:00:44.568Z,33.8
2017-12-22T10:01:44.615Z,33.9
2017-12-22T10:02:44.707Z,33.9
2017-12-22T10:03:46.403Z,33.9
2017-12-22T10:04:45.505Z,33.9
2017-12-22T10:05:46.725Z,33.9
2017-12-22T10:06:46.578Z,33.9
2017-12-22T10:07:44.698Z,33.9
2017-12-22T10:08:44.759Z,34
2017-12-22T10:09:46.887Z,33.9
2017-12-22T10:10:46.907Z,34
2017-12-22T10:11:46.917Z,34
2017-12-22T10:12:47.001Z,33.9
2017-12-22T10:13:45.181Z,33.9
2017-12-22T10:14:44.890Z,34
2017-12-22T10:15:46.997Z,34
2017-12-22T10:16:47.167Z,34
2017-12-22T10:17:45.109Z,33.8
2017-12-22T10:18:45.040Z,33.6
2017-12-22T10:19:47.416Z,33.5
2017-12-22T10:20:47.484Z,33.6
2017-12-22T10:21:45.418Z,33.6
2017-12-22T10:22:45.646Z,33.7
2017-12-22T10:23:47.472Z,33.7
2017-12-22T10:24:45.354Z,33.9
2017-12-22T10:25:47.623Z,34
2017-12-22T10:26:45.724Z,34.1
2017-12-22T10:27:45.465Z,34.2
2017-12-22T10:28:47.707Z,34.3
2017-12-22T10:29:45.811Z,34.3
2017-12-22T10:30:45.531Z,34.4
2017-12-22T10:31:45.631Z,34.4
2017-12-22T10:32:47.800Z,34.5
2017-12-22T10:33:45.951Z,34.6
2017-12-22T10:34:45.825Z,34.6
2017-12-22T10:35:45.929Z,34.7
2017-12-22T10:36:46.231Z,34.7
2017-12-22T10:37:47.953Z,34.8
2017-12-22T10:38:46.043Z,34.8
2017-12-22T10:39:46.029Z,34.8
2017-12-22T10:40:48.235Z,34.9
2017-12-22T10:41:46.199Z,34.9
2017-12-22T10:42:46.222Z,35
2017-12-22T10:43:46.580Z,35
2017-12-22T10:44:46.272Z,35
2017-12-22T10:45:48.495Z,35
2017-12-22T10:46:46.438Z,35
2017-12-22T10:47:46.577Z,35.1
2017-12-22T10:48:49.087Z,35
2017-12-22T10:49:46.519Z,35.1
2017-12-22T10:50:46.624Z,35
2017-12-22T10:51:48.677Z,35
2017-12-22T10:52:48.786Z,35.1
2017-12-22T10:53:46.669Z,35.1
2017-12-22T10:54:46.764Z,35.1
2017-12-22T10:55:49.004Z,35.1
2017-12-22T10:56:46.850Z,35.1
2017-12-22T10:57:48.990Z,35.1
2017-12-22T10:58:48.761Z,35.1
2017-12-22T10:59:50.965Z,35.1
2017-12-22T11:00:49.074Z,35.1
2017-12-22T11:01:49.218Z,35.1
2017-12-22T11:02:47.249Z,35.1
2017-12-22T11:03:49.071Z,35.1
2017-12-22T11:04:49.354Z,35.2
2017-12-22T11:05:47.334Z,35.2
2017-12-22T11:06:47.236Z,35.2
2017-12-22T11:07:49.220Z,35.2
2017-12-22T11:08:49.373Z,35.2
2017-12-22T11:09:49.322Z,35.3
2017-12-22T11:10:49.430Z,35.3
2017-12-22T11:11:47.669Z,35.3
2017-12-22T11:12:47.491Z,35.3
2017-12-22T11:13:47.722Z,35.3
2017-12-22T11:14:49.472Z,35.3
2017-12-22T11:15:49.702Z,35.3
2017-12-22T11:16:47.815Z,35.3
2017-12-22T11:17:50.437Z,35.3
2017-12-22T11:18:49.662Z,35.3
2017-12-22T11:19:47.855Z,35.2
2017-12-22T11:20:47.935Z,35.3
2017-12-22T11:21:47.972Z,35.2
2017-12-22T11:22:48.131Z,35.2
2017-12-22T11:23:51.012Z,35.2
2017-12-22T11:24:48.050Z,35.2
2017-12-22T11:25:50.300Z,35.2
2017-12-22T11:26:48.466Z,35.3
2017-12-22T11:27:48.533Z,35.4
2017-12-22T11:28:48.568Z,35.3
2017-12-22T11:32:16.225Z,35.6
2017-12-22T11:33:14.063Z,35.7
2017-12-22T11:34:14.135Z,35.8
2017-12-22T11:35:14.187Z,35.8
2017-12-22T11:36:14.614Z,35.8
2017-12-22T11:37:16.723Z,35.8
2017-12-22T11:38:14.687Z,35.9
2017-12-22T11:39:14.513Z,35.9
2017-12-22T11:40:16.536Z,35.9
2017-12-22T11:41:14.814Z,35.8
2017-12-22T11:42:14.884Z,35.9
2017-12-22T11:43:16.848Z,35.9
2017-12-22T11:44:16.651Z,35.9
2017-12-22T11:45:15.217Z,35.9
2017-12-22T11:46:14.995Z,35.9
2017-12-22T11:47:14.983Z,35.9
2017-12-22T11:48:17.187Z,35.8
2017-12-22T11:49:17.298Z,35.8
2017-12-22T11:50:15.313Z,35.8
2017-12-22T11:51:15.954Z,35.8
2017-12-22T11:52:15.352Z,35.8
2017-12-22T11:53:15.229Z,35.8
2017-12-22T11:54:15.492Z,35.8
2017-12-22T11:55:16.955Z,35.8
2017-12-22T11:56:15.353Z,35.8
2017-12-22T11:57:15.557Z,35.8
2017-12-22T11:58:17.647Z,35.7
2017-12-22T11:59:17.725Z,35.8
2017-12-22T12:00:17.052Z,35.8
2017-12-22T12:01:16.199Z,35.8
2017-12-22T12:02:18.263Z,35.8
2017-12-22T12:03:16.861Z,35.8
2017-12-22T12:04:15.816Z,35.8
2017-12-22T12:05:15.872Z,35.8
2017-12-22T12:06:16.196Z,35.8
2017-12-22T12:07:16.032Z,35.8
2017-12-22T12:08:16.030Z,35.8
2017-12-22T12:09:16.375Z,35.7
2017-12-22T12:10:16.306Z,35.8
2017-12-22T12:11:16.234Z,35.9
2017-12-22T12:12:18.371Z,36
2017-12-22T12:13:16.384Z,36.1
2017-12-22T12:14:16.170Z,36.2
2017-12-22T12:15:18.214Z,36.2
2017-12-22T12:16:18.448Z,36.3
2017-12-22T12:17:18.482Z,36.3
2017-12-22T12:18:18.469Z,36.3
2017-12-22T12:19:18.556Z,36.3
2017-12-22T12:20:18.744Z,36.3
2017-12-22T12:21:16.404Z,36.3
2017-12-22T12:22:16.724Z,36.3
2017-12-22T12:23:17.429Z,36.3
2017-12-22T12:24:16.676Z,36.3
2017-12-22T12:25:16.675Z,36.3
2017-12-22T12:26:16.927Z,36.3
2017-12-22T12:27:16.781Z,36.3
2017-12-22T12:28:16.974Z,36.3
2017-12-22T12:29:19.156Z,36.3
2017-12-22T12:30:19.496Z,36.3
2017-12-22T12:31:19.314Z,36.3
2017-12-22T12:32:17.289Z,36.3
2017-12-22T12:33:19.345Z,36.3
2017-12-22T12:34:17.160Z,36.3
2017-12-22T12:35:19.457Z,36.3
2017-12-22T12:36:17.596Z,36.4
2017-12-22T12:37:18.427Z,36.4
2017-12-22T12:38:19.646Z,36.3
2017-12-22T12:39:17.474Z,36.3
2017-12-22T12:40:17.489Z,36.3
2017-12-22T12:41:19.718Z,36.4
2017-12-22T12:42:17.948Z,36.4
2017-12-22T12:43:18.140Z,36.4
2017-12-22T12:44:17.997Z,36.4
2017-12-22T12:45:18.093Z,36.5
2017-12-22T12:46:18.164Z,36.5
2017-12-22T12:47:17.911Z,36.4
2017-12-22T12:48:18.191Z,36.4
2017-12-22T12:49:18.026Z,36.4
2017-12-22T12:50:19.948Z,36.4
2017-12-22T12:51:18.290Z,36.4
2017-12-22T12:52:18.165Z,36.4
2017-12-22T12:53:20.350Z,36.4
2017-12-22T12:54:20.415Z,36.5
2017-12-22T12:55:20.242Z,36.5
2017-12-22T12:56:18.452Z,36.5
2017-12-22T12:57:18.416Z,36.5
2017-12-22T12:58:18.406Z,36.6
2017-12-22T12:59:18.727Z,36.6
2017-12-22T13:00:18.567Z,36.6
2017-12-22T13:01:20.772Z,36.6
2017-12-22T13:02:18.911Z,36.6
2017-12-22T13:03:20.897Z,36.6
2017-12-22T13:04:21.005Z,36.6
2017-12-22T13:05:18.915Z,36.6
2017-12-22T13:06:20.983Z,36.6
2017-12-22T13:07:19.025Z,36.6
2017-12-22T13:08:19.314Z,36.6
2017-12-22T13:09:21.227Z,36.6
2017-12-22T13:10:19.293Z,36.7
2017-12-22T13:11:19.215Z,36.6
2017-12-22T13:12:21.371Z,36.6
2017-12-22T13:13:21.396Z,36.6
2017-12-22T13:14:19.326Z,36.6
2017-12-22T13:15:19.586Z,36.6
2017-12-22T13:16:19.348Z,36.6
2017-12-22T13:17:21.397Z,36.6
2017-12-22T13:18:21.589Z,36.6
2017-12-22T13:19:21.656Z,36.6
2017-12-22T13:20:19.821Z,36.6
2017-12-22T13:21:21.756Z,36.6
2017-12-22T13:22:19.847Z,36.6
2017-12-22T13:23:19.746Z,36.6
2017-12-22T13:24:19.731Z,36.6
2017-12-22T13:25:22.047Z,36.6
2017-12-22T13:26:22.044Z,36.6
2017-12-22T13:27:19.966Z,36.6
2017-12-22T13:28:19.982Z,36.7
2017-12-22T13:29:22.220Z,36.7
2017-12-22T13:30:22.245Z,36.7
2017-12-22T13:31:20.136Z,36.7
2017-12-22T13:32:20.362Z,36.8
2017-12-22T13:33:20.275Z,36.8